createdAt,value
2019-03-13T00:01:05.429Z,95569.59
2019-03-13T00:03:37.337Z,95562.55
2019-03-13T00:06:09.270Z,95557.00
2019-03-13T00:08:41.159Z,95560.44
2019-03-13T00:11:13.039Z,95571.86
2019-03-13T00:13:45.164Z,95560.59
2019-03-13T00:16:18.117Z,95563.69
2019-03-13T00:18:49.919Z,95561.38
2019-03-13T00:21:21.671Z,95573.31
2019-03-13T00:23:53.381Z,95572.34
2019-03-13T00:26:25.210Z,95575.63
2019-03-13T00:28:56.938Z,95574.68
2019-03-13T00:31:28.752Z,95593.95
2019-03-13T00:34:00.474Z,95584.62
2019-03-13T00:36:32.361Z,95592.08
2019-03-13T00:39:07.086Z,95603.84
2019-03-13T00:41:39.056Z,95607.28
2019-03-13T00:44:11.109Z,95611.28
2019-03-13T00:46:42.925Z,95612.29
2019-03-13T00:49:14.714Z,95615.52
2019-03-13T00:51:46.457Z,95633.98
2019-03-13T00:54:18.274Z,95616.80
2019-03-13T00:56:50.253Z,95640.70
2019-03-13T00:59:21.972Z,95637.28
2019-03-13T01:02:09.688Z,95647.44
2019-03-13T01:04:49.248Z,95690.17
2019-03-13T01:07:21.057Z,95666.30
2019-03-13T01:09:52.880Z,95671.37
2019-03-13T01:12:24.687Z,95681.19
2019-03-13T01:14:57.449Z,95695.13
2019-03-13T01:17:29.262Z,95696.93
2019-03-13T01:20:01.502Z,95718.02
2019-03-13T01:22:33.237Z,95723.30
2019-03-13T01:25:05.793Z,95739.64
2019-03-13T01:27:37.544Z,95744.72
2019-03-13T01:30:10.629Z,95824.14
2019-03-13T01:32:48.813Z,95790.66
2019-03-13T01:35:33.588Z,95797.83
2019-03-13T01:38:05.405Z,95806.45
2019-03-13T01:40:37.453Z,95814.88
2019-03-13T01:43:09.279Z,95822.99
2019-03-13T01:45:41.368Z,95831.67
2019-03-13T01:48:13.113Z,95823.61
2019-03-13T01:50:45.103Z,95834.70
2019-03-13T01:53:16.940Z,95842.05
2019-03-13T01:55:48.992Z,95848.20
2019-03-13T01:58:20.758Z,95861.20
2019-03-13T02:00:52.810Z,95873.41
2019-03-13T02:03:24.722Z,95877.91
2019-03-13T02:05:56.786Z,95881.12
2019-03-13T02:08:28.612Z,95881.98
2019-03-13T02:11:00.493Z,95906.77
2019-03-13T02:13:32.397Z,95911.10
2019-03-13T02:16:04.304Z,95925.11
2019-03-13T02:18:36.215Z,95918.80
2019-03-13T02:21:08.161Z,95923.20
2019-03-13T02:23:40.232Z,95934.29
2019-03-13T02:26:12.003Z,95945.89
2019-03-13T02:28:43.816Z,95941.77
2019-03-13T02:31:16.332Z,95934.22
2019-03-13T02:33:48.652Z,95943.76
2019-03-13T02:36:20.408Z,95938.58
2019-03-13T02:38:52.135Z,95935.15
2019-03-13T02:41:23.904Z,95944.23
2019-03-13T02:43:55.728Z,95948.70
2019-03-13T02:46:27.479Z,95967.47
2019-03-13T02:48:59.228Z,95972.69
2019-03-13T02:51:31.114Z,95972.27
2019-03-13T02:54:02.864Z,95992.34
2019-03-13T02:56:34.751Z,95985.36
2019-03-13T02:59:06.579Z,95990.47
2019-03-13T03:01:44.604Z,95987.39
2019-03-13T03:04:16.344Z,95994.24
2019-03-13T03:06:48.083Z,96000.54
2019-03-13T03:09:19.849Z,96000.88
2019-03-13T03:11:51.823Z,96009.80
2019-03-13T03:14:24.008Z,96018.72
2019-03-13T03:16:55.741Z,96015.34
2019-03-13T03:19:27.496Z,96016.30
2019-03-13T03:21:59.542Z,96023.77
2019-03-13T03:24:31.468Z,96026.94
2019-03-13T03:27:03.341Z,96037.88
2019-03-13T03:29:38.537Z,96036.57
2019-03-13T03:32:08.926Z,96045.96
2019-03-13T03:34:40.911Z,96044.41
2019-03-13T03:37:12.875Z,96053.16
2019-03-13T03:39:44.608Z,96057.77
2019-03-13T03:42:16.523Z,96070.44
2019-03-13T03:44:48.251Z,96066.44
2019-03-13T03:47:20.041Z,96071.71
2019-03-13T03:49:51.849Z,96078.52
2019-03-13T03:52:23.830Z,96078.91
2019-03-13T03:54:55.557Z,96079.80
2019-03-13T03:57:27.284Z,96079.66
2019-03-13T03:59:59.329Z,96077.80
2019-03-13T04:02:31.129Z,96095.17
2019-03-13T04:05:03.132Z,96088.84
2019-03-13T04:07:35.556Z,96101.77
2019-03-13T04:10:07.695Z,96091.60
2019-03-13T04:12:39.733Z,96099.63
2019-03-13T04:15:12.478Z,96098.53
2019-03-13T04:17:44.608Z,96093.73
2019-03-13T04:20:16.494Z,96088.24
2019-03-13T04:22:48.288Z,96098.33
2019-03-13T04:25:39.195Z,96096.34
2019-03-13T04:28:11.420Z,96099.29
2019-03-13T04:30:43.155Z,96089.77
2019-03-13T04:33:15.180Z,96101.23
2019-03-13T04:35:46.906Z,96109.14
2019-03-13T04:38:19.615Z,96112.37
2019-03-13T04:40:51.409Z,96111.87
2019-03-13T04:43:23.142Z,96123.04
2019-03-13T04:45:55.839Z,96130.46
2019-03-13T04:48:27.893Z,96147.32
2019-03-13T04:50:59.616Z,96137.09
2019-03-13T04:53:31.612Z,96147.36
2019-03-13T04:56:03.314Z,96150.11
2019-03-13T04:58:35.311Z,96145.43
2019-03-13T05:01:07.352Z,96153.77
2019-03-13T05:03:39.097Z,96155.94
2019-03-13T05:06:22.096Z,96162.57
2019-03-13T05:09:22.328Z,96161.39
2019-03-13T05:11:54.042Z,96171.20
2019-03-13T05:14:25.766Z,96189.34
2019-03-13T05:16:57.479Z,96169.23
2019-03-13T05:19:29.212Z,96172.48
2019-03-13T05:22:00.996Z,96164.63
2019-03-13T05:24:33.037Z,96154.17
2019-03-13T05:27:04.838Z,96143.16
2019-03-13T05:29:36.901Z,96149.20
2019-03-13T05:32:08.617Z,96147.14
2019-03-13T05:34:40.345Z,96137.66
2019-03-13T05:37:12.068Z,96145.01
2019-03-13T05:39:43.877Z,96136.23
2019-03-13T05:42:15.599Z,96126.08
2019-03-13T05:44:47.331Z,96134.42
2019-03-13T05:47:19.042Z,96143.70
2019-03-13T05:49:50.778Z,96146.82
2019-03-13T05:52:22.495Z,96144.84
2019-03-13T05:54:54.212Z,96151.87
2019-03-13T05:57:25.935Z,96148.97
2019-03-13T05:59:57.663Z,96159.00
2019-03-13T06:02:29.476Z,96150.42
2019-03-13T06:05:01.195Z,96173.38
2019-03-13T06:07:32.917Z,96198.00
2019-03-13T06:10:04.977Z,96186.46
2019-03-13T06:12:36.686Z,96207.03
2019-03-13T06:15:08.915Z,96195.53
2019-03-13T06:17:40.643Z,96199.11
2019-03-13T06:20:12.675Z,96193.56
2019-03-13T06:22:44.468Z,96204.94
2019-03-13T06:25:16.356Z,96193.75
2019-03-13T06:27:48.142Z,96203.52
2019-03-13T06:30:19.997Z,96204.06
2019-03-13T06:32:51.795Z,96216.19
2019-03-13T06:35:24.500Z,96209.55
2019-03-13T06:37:56.225Z,96204.94
2019-03-13T06:40:28.055Z,96210.67
2019-03-13T06:42:59.765Z,96204.87
2019-03-13T06:45:32.932Z,96204.38
2019-03-13T06:48:04.781Z,96205.03
2019-03-13T06:50:36.587Z,96194.20
2019-03-13T06:53:08.448Z,96197.98
2019-03-13T06:55:40.151Z,96197.27
2019-03-13T06:58:11.870Z,96192.48
2019-03-13T07:01:00.226Z,96175.39
2019-03-13T07:03:49.565Z,96192.38
2019-03-13T07:06:43.790Z,96179.08
2019-03-13T07:09:46.568Z,96187.82
2019-03-13T07:12:26.005Z,96176.40
2019-03-13T07:15:19.401Z,96171.78
2019-03-13T07:18:16.124Z,96175.58
2019-03-13T07:21:09.978Z,96182.37
2019-03-13T07:23:57.100Z,96174.70
2019-03-13T07:26:51.545Z,96174.92
2019-03-13T07:29:45.295Z,96175.52
2019-03-13T07:32:34.781Z,96177.22
2019-03-13T07:35:31.390Z,96164.12
2019-03-13T07:38:15.825Z,96169.64
2019-03-13T07:41:05.537Z,96168.42
2019-03-13T07:43:49.377Z,96164.20
2019-03-13T07:46:32.884Z,96164.21
2019-03-13T07:49:53.564Z,96164.27
2019-03-13T07:52:35.324Z,96159.45
2019-03-13T07:55:25.869Z,96171.19
2019-03-13T07:58:19.539Z,96164.27
2019-03-13T08:01:13.222Z,96181.91
2019-03-13T08:03:52.939Z,96178.34
2019-03-13T08:06:43.373Z,96179.38
2019-03-13T08:09:45.907Z,96174.16
2019-03-13T08:12:42.363Z,96175.20
2019-03-13T08:15:31.051Z,96171.97
2019-03-13T08:18:20.264Z,96184.67
2019-03-13T08:21:10.784Z,96178.84
2019-03-13T08:23:59.582Z,96171.34
2019-03-13T08:26:50.221Z,96175.52
2019-03-13T08:29:43.648Z,96172.30
2019-03-13T08:32:34.354Z,96181.23
2019-03-13T08:35:28.048Z,96184.17
2019-03-13T08:38:30.848Z,96174.09
2019-03-13T08:41:27.584Z,96193.03
2019-03-13T08:44:16.963Z,96167.44
2019-03-13T08:47:07.583Z,96165.35
2019-03-13T08:49:56.699Z,96160.53
2019-03-13T08:52:34.876Z,96173.39
2019-03-13T08:55:28.612Z,96168.44
2019-03-13T08:58:08.665Z,96163.27
2019-03-13T09:00:49.287Z,96183.66
2019-03-13T09:03:27.976Z,96170.19
2019-03-13T09:06:24.837Z,96157.58
2019-03-13T09:09:18.603Z,96169.19
2019-03-13T09:11:55.971Z,96178.79
2019-03-13T09:14:33.054Z,96162.31
2019-03-13T09:17:19.990Z,96151.53
2019-03-13T09:20:09.106Z,96145.84
2019-03-13T09:22:56.931Z,96155.23
2019-03-13T09:25:46.288Z,96150.80
2019-03-13T09:28:29.878Z,96146.11
2019-03-13T09:31:16.051Z,96136.45
2019-03-13T09:34:00.046Z,96138.84
2019-03-13T09:36:42.700Z,96141.22
2019-03-13T09:39:48.212Z,96135.70
2019-03-13T09:42:34.846Z,96136.01
2019-03-13T09:45:25.851Z,96128.09
2019-03-13T09:48:22.360Z,96125.00
2019-03-13T09:51:00.211Z,96122.09
2019-03-13T09:53:40.101Z,96121.36
2019-03-13T09:56:28.457Z,96119.40
2019-03-13T09:59:16.472Z,96111.66
2019-03-13T10:02:12.902Z,96099.02
2019-03-13T10:05:02.253Z,96111.25
2019-03-13T10:07:56.051Z,96107.81
2019-03-13T10:10:35.612Z,96099.19
2019-03-13T10:13:19.712Z,96094.58
2019-03-13T10:16:09.190Z,96101.83
2019-03-13T10:18:58.666Z,96099.22
2019-03-13T10:21:40.529Z,96103.44
2019-03-13T10:24:40.218Z,96104.02
2019-03-13T10:27:31.118Z,96128.31
2019-03-13T10:30:10.620Z,96103.58
2019-03-13T10:32:50.723Z,96095.75
2019-03-13T10:35:40.090Z,96079.87
2019-03-13T10:38:41.047Z,96093.27
2019-03-13T10:41:34.435Z,96088.03
2019-03-13T10:44:31.161Z,96089.95
2019-03-13T10:47:15.117Z,96089.58
2019-03-13T10:50:08.569Z,96096.09
2019-03-13T10:52:57.946Z,96089.00
2019-03-13T10:55:47.147Z,96082.92
2019-03-13T10:58:36.469Z,96079.40
2019-03-13T11:01:17.894Z,96074.57
2019-03-13T11:04:07.201Z,96088.94
2019-03-13T11:06:57.835Z,96074.41
2019-03-13T11:10:00.514Z,96076.25
2019-03-13T11:12:37.483Z,96084.85
2019-03-13T11:15:27.561Z,96082.16
2019-03-13T11:18:04.763Z,96071.58
2019-03-13T11:20:58.934Z,96067.64
2019-03-13T11:23:55.251Z,96065.53
2019-03-13T11:26:58.032Z,96081.89
2019-03-13T11:30:01.324Z,96070.93
2019-03-13T11:32:50.774Z,96065.00
2019-03-13T11:35:41.399Z,96060.48
2019-03-13T11:38:20.381Z,96060.37
2019-03-13T11:41:09.785Z,96071.30
2019-03-13T11:43:47.325Z,96060.61
2019-03-13T11:46:43.973Z,96061.23
2019-03-13T11:49:33.206Z,96049.70
2019-03-13T11:52:14.906Z,96057.79
2019-03-13T11:55:03.966Z,96052.23
2019-03-13T11:57:53.048Z,96046.03
2019-03-13T12:00:50.449Z,96046.13
2019-03-13T12:03:40.075Z,96042.86
2019-03-13T12:06:33.804Z,96037.17
2019-03-13T12:09:25.255Z,96032.50
2019-03-13T12:12:15.288Z,96037.80
2019-03-13T12:14:55.866Z,96043.03
2019-03-13T12:17:37.521Z,96037.37
2019-03-13T12:20:37.858Z,96026.09
2019-03-13T12:23:35.596Z,96016.78
2019-03-13T12:26:18.784Z,96013.50
2019-03-13T12:29:09.397Z,95999.56
2019-03-13T12:31:54.324Z,95991.63
2019-03-13T12:34:44.443Z,95990.95
2019-03-13T12:37:33.878Z,96003.20
2019-03-13T12:40:31.574Z,96009.88
2019-03-13T12:43:20.931Z,96026.04
2019-03-13T12:46:01.646Z,95972.49
2019-03-13T12:49:04.444Z,96006.15
2019-03-13T12:51:55.066Z,95969.22
2019-03-13T12:54:34.582Z,95970.42
2019-03-13T12:57:21.460Z,95992.66
2019-03-13T13:00:00.491Z,95982.26
2019-03-13T13:02:49.588Z,95978.68
2019-03-13T13:05:38.329Z,95975.73
2019-03-13T13:08:33.820Z,95981.97
2019-03-13T13:11:14.061Z,95972.42
2019-03-13T13:14:03.265Z,95991.16
2019-03-13T13:16:52.437Z,95997.80
2019-03-13T13:19:24.148Z,96010.19
2019-03-13T13:21:55.939Z,96009.09
2019-03-13T13:24:27.882Z,96003.54
2019-03-13T13:27:00.015Z,96004.98
2019-03-13T13:29:31.716Z,95992.00
2019-03-13T13:32:03.505Z,96000.55
2019-03-13T13:34:35.291Z,95981.45
2019-03-13T13:37:08.039Z,95976.73
2019-03-13T13:39:39.832Z,95970.14
2019-03-13T13:42:11.631Z,95971.02
2019-03-13T13:44:43.428Z,95974.20
2019-03-13T13:47:15.129Z,95964.11
2019-03-13T13:49:58.849Z,95965.38
2019-03-13T13:52:20.262Z,95970.58
2019-03-13T13:54:52.934Z,95973.91
2019-03-13T13:57:24.896Z,95965.75
2019-03-13T13:59:59.175Z,95961.23
2019-03-13T14:02:30.142Z,95953.22
2019-03-13T14:05:02.807Z,95951.07
2019-03-13T14:07:34.609Z,95958.84
2019-03-13T14:10:06.911Z,95952.97
2019-03-13T14:12:38.692Z,95985.98
2019-03-13T14:15:11.801Z,95945.84
2019-03-13T14:17:43.600Z,95927.34
2019-03-13T14:20:15.689Z,95919.33
2019-03-13T14:22:47.488Z,95908.53
2019-03-13T14:25:19.290Z,95921.61
2019-03-13T14:27:51.168Z,95912.47
2019-03-13T14:30:22.969Z,95907.52
2019-03-13T14:32:54.684Z,95924.72
2019-03-13T14:35:26.468Z,95907.70
2019-03-13T14:37:58.342Z,95910.66
2019-03-13T14:40:30.090Z,95912.77
2019-03-13T14:43:02.242Z,95903.27
2019-03-13T14:45:34.020Z,95913.75
2019-03-13T14:48:06.026Z,95921.94
2019-03-13T14:50:37.837Z,95923.58
2019-03-13T14:53:11.137Z,95937.31
2019-03-13T14:55:42.920Z,95917.95
2019-03-13T14:58:14.693Z,95938.95
2019-03-13T15:00:46.728Z,95985.50
2019-03-13T15:03:18.454Z,95957.77
2019-03-13T15:05:50.212Z,95954.61
2019-03-13T15:08:21.941Z,95966.38
2019-03-13T15:10:53.714Z,95966.16
2019-03-13T15:13:25.458Z,95962.11
2019-03-13T15:15:57.487Z,95965.03
2019-03-13T15:18:29.279Z,95955.95
2019-03-13T15:21:01.394Z,95944.10
2019-03-13T15:23:33.257Z,95938.50
2019-03-13T15:26:05.443Z,95943.12
2019-03-13T15:28:37.407Z,95948.14
2019-03-13T15:31:11.332Z,95926.59
2019-03-13T15:33:43.049Z,95936.11
2019-03-13T15:36:14.909Z,95928.65
2019-03-13T15:38:46.712Z,95932.17
2019-03-13T15:41:18.501Z,95966.22
2019-03-13T15:43:50.217Z,95934.78
2019-03-13T15:46:21.917Z,95942.12
2019-03-13T15:48:53.716Z,95938.87
2019-03-13T15:51:25.477Z,95961.19
2019-03-13T15:53:57.173Z,95947.61
2019-03-13T15:56:28.875Z,95945.67
2019-03-13T15:59:00.848Z,95942.84
2019-03-13T16:01:32.580Z,95935.44
2019-03-13T16:04:04.435Z,95940.02
2019-03-13T16:06:36.217Z,95944.82
2019-03-13T16:09:09.357Z,95944.31
2019-03-13T16:11:42.652Z,95934.04
2019-03-13T16:14:14.372Z,95934.26
2019-03-13T16:16:46.190Z,95933.96
2019-03-13T16:19:17.919Z,95935.23
2019-03-13T16:21:49.707Z,95935.08
2019-03-13T16:24:21.430Z,95932.78
2019-03-13T16:26:53.147Z,95936.46
2019-03-13T16:29:24.904Z,95943.78
2019-03-13T16:31:56.718Z,95943.52
2019-03-13T16:34:28.684Z,95941.37
2019-03-13T16:37:00.649Z,95937.30
2019-03-13T16:39:42.061Z,95942.47
2019-03-13T16:42:21.185Z,95936.97
2019-03-13T16:44:53.151Z,95941.84
2019-03-13T16:47:25.197Z,95939.16
2019-03-13T16:49:56.912Z,95926.90
2019-03-13T16:52:28.687Z,95932.09
2019-03-13T16:55:00.450Z,95931.80
2019-03-13T16:57:33.967Z,95920.63
2019-03-13T17:00:08.479Z,95923.81
2019-03-13T17:02:41.150Z,95925.06
2019-03-13T17:05:13.609Z,95926.36
2019-03-13T17:07:45.391Z,95911.02
2019-03-13T17:10:18.003Z,95914.13
2019-03-13T17:12:49.859Z,95915.92
2019-03-13T17:15:22.307Z,95923.95
2019-03-13T17:17:54.445Z,95916.06
2019-03-13T17:25:01.986Z,95913.99
2019-03-13T17:27:33.987Z,95916.75
2019-03-13T17:30:08.330Z,95920.06
2019-03-13T17:32:40.089Z,95906.50
2019-03-13T17:35:11.933Z,95904.49
2019-03-13T17:37:43.692Z,95908.83
2019-03-13T17:40:19.328Z,95909.88
2019-03-13T17:42:51.068Z,95904.23
2019-03-13T17:45:23.054Z,95912.80
2019-03-13T17:47:56.820Z,95902.31
2019-03-13T17:50:28.843Z,95897.80
2019-03-13T17:53:03.417Z,95905.40
2019-03-13T17:55:35.207Z,95901.72
2019-03-13T17:58:07.081Z,95918.63
2019-03-13T18:00:45.152Z,95926.45
2019-03-13T18:03:17.152Z,95913.55
2019-03-13T18:05:49.191Z,95919.41
2019-03-13T18:08:21.470Z,95923.21
2019-03-13T18:10:53.391Z,95917.59
2019-03-13T18:13:25.166Z,95930.03
2019-03-13T18:15:56.964Z,95925.06
2019-03-13T18:18:28.909Z,95922.55
2019-03-13T18:21:00.745Z,95948.81
2019-03-13T18:23:32.676Z,95927.22
2019-03-13T18:26:04.677Z,95950.79
2019-03-13T18:28:36.446Z,95937.25
2019-03-13T18:31:08.458Z,95954.91
2019-03-13T18:33:40.301Z,95946.97
2019-03-13T18:36:14.179Z,95942.13
2019-03-13T18:38:45.725Z,95953.56
2019-03-13T18:41:17.524Z,95944.79
2019-03-13T18:43:49.532Z,95945.06
2019-03-13T18:46:21.343Z,95942.34
2019-03-13T18:48:53.144Z,95938.50
2019-03-13T18:51:25.001Z,95938.30
2019-03-13T18:53:56.746Z,95942.19
2019-03-13T18:56:28.866Z,95954.60
2019-03-13T18:59:00.669Z,95953.62
2019-03-13T19:01:33.347Z,95959.39
2019-03-13T19:04:05.495Z,95956.10
2019-03-13T19:06:37.412Z,95972.39
2019-03-13T19:09:11.222Z,95967.13
2019-03-13T19:11:44.653Z,95973.83
2019-03-13T19:14:16.529Z,95969.31
2019-03-13T19:16:48.867Z,95971.55
2019-03-13T19:19:20.657Z,95965.89
2019-03-13T19:21:52.550Z,95965.13
2019-03-13T19:24:24.518Z,95986.27
2019-03-13T19:26:56.727Z,95985.24
2019-03-13T19:29:28.713Z,95987.05
2019-03-13T19:32:00.755Z,95997.45
2019-03-13T19:34:32.819Z,95995.22
2019-03-13T19:37:05.077Z,96012.76
2019-03-13T19:39:37.735Z,96023.63
2019-03-13T19:42:09.828Z,96038.43
2019-03-13T19:44:43.021Z,96015.22
2019-03-13T19:47:15.034Z,96016.92
2019-03-13T19:49:47.033Z,96022.86
2019-03-13T19:52:18.905Z,96031.56
2019-03-13T19:54:50.837Z,96028.52
2019-03-13T19:57:22.756Z,96026.95
2019-03-13T19:59:54.655Z,96014.60
2019-03-13T20:02:26.379Z,96003.39
2019-03-13T20:04:59.221Z,95986.91
2019-03-13T20:07:31.198Z,95989.28
2019-03-13T20:10:03.118Z,96000.19
2019-03-13T20:12:35.101Z,96005.10
2019-03-13T20:15:08.654Z,95996.60
2019-03-13T20:17:41.739Z,95998.84
2019-03-13T20:20:15.673Z,96011.89
2019-03-13T20:22:49.072Z,96007.08
2019-03-13T20:25:21.108Z,96006.02
2019-03-13T20:27:54.724Z,95993.66
2019-03-13T20:30:26.845Z,95993.84
2019-03-13T20:32:58.836Z,95989.00
2019-03-13T20:35:30.678Z,95982.40
2019-03-13T20:38:02.406Z,95981.52
2019-03-13T20:40:34.335Z,95989.16
2019-03-13T20:43:06.491Z,95984.39
2019-03-13T20:45:38.376Z,95989.02
2019-03-13T20:48:11.597Z,95983.52
2019-03-13T20:50:43.396Z,95989.01
2019-03-13T20:53:15.192Z,95972.06
2019-03-13T20:55:47.102Z,95978.30
2019-03-13T20:58:18.910Z,95986.94
2019-03-13T21:00:50.612Z,95984.95
2019-03-13T21:03:22.416Z,95981.70
2019-03-13T21:05:54.143Z,95991.37
2019-03-13T21:08:25.896Z,95988.02
2019-03-13T21:10:57.753Z,95989.31
2019-03-13T21:13:29.552Z,95983.10
2019-03-13T21:16:01.272Z,95990.20
2019-03-13T21:18:33.231Z,95986.36
2019-03-13T21:21:05.011Z,95980.28
2019-03-13T21:23:37.077Z,95981.69
2019-03-13T21:26:08.788Z,95983.47
2019-03-13T21:28:40.504Z,95989.38
2019-03-13T21:31:12.215Z,95985.16
2019-03-13T21:33:44.001Z,95996.29
2019-03-13T21:36:15.674Z,95992.25
2019-03-13T21:38:47.507Z,95990.02
2019-03-13T21:41:19.585Z,95998.76
2019-03-13T21:43:51.331Z,95993.92
2019-03-13T21:46:23.081Z,96006.19
2019-03-13T21:48:54.803Z,96003.33
2019-03-13T21:51:26.551Z,96009.98
2019-03-13T21:53:58.366Z,96009.66
2019-03-13T21:56:30.212Z,96005.76
2019-03-13T21:59:02.070Z,96016.10
2019-03-13T22:01:33.787Z,96016.34
2019-03-13T22:04:07.850Z,96014.17
2019-03-13T22:06:39.053Z,96015.30
2019-03-13T22:09:11.224Z,96014.66
2019-03-13T22:11:43.078Z,96007.61
2019-03-13T22:14:15.162Z,96020.77
2019-03-13T22:16:48.025Z,96019.22
2019-03-13T22:19:19.916Z,96037.09
2019-03-13T22:21:51.616Z,96032.77
2019-03-13T22:24:23.416Z,96035.88
2019-03-13T22:26:55.228Z,96036.24
2019-03-13T22:29:27.006Z,96038.09
2019-03-13T22:31:58.728Z,96051.94
2019-03-13T22:34:30.507Z,96059.94
2019-03-13T22:37:02.222Z,96078.83
2019-03-13T22:39:35.036Z,96067.75
2019-03-13T22:42:06.740Z,96089.11
2019-03-13T22:44:38.708Z,96091.08
2019-03-13T22:47:10.878Z,96097.66
2019-03-13T22:49:42.670Z,96092.53
2019-03-13T22:52:14.376Z,96096.19
2019-03-13T22:54:46.361Z,96088.64
2019-03-13T22:57:18.078Z,96092.06
2019-03-13T22:59:49.802Z,96100.82
2019-03-13T23:02:21.592Z,96100.97
2019-03-13T23:04:53.368Z,96098.48
2019-03-13T23:07:25.172Z,96096.10
2019-03-13T23:09:56.873Z,96097.83
2019-03-13T23:12:30.407Z,96091.05
2019-03-13T23:15:05.377Z,96099.02
2019-03-13T23:17:36.510Z,96101.57
2019-03-13T23:20:08.527Z,96113.89
2019-03-13T23:22:40.326Z,96101.91
2019-03-13T23:25:13.174Z,96098.23
2019-03-13T23:27:44.953Z,96105.64
2019-03-13T23:30:17.177Z,96107.66
2019-03-13T23:32:48.904Z,96114.52
2019-03-13T23:35:20.593Z,96116.95
2019-03-13T23:37:52.438Z,96113.15
2019-03-13T23:40:24.353Z,96107.92
2019-03-13T23:42:56.149Z,96118.73
2019-03-13T23:45:28.966Z,96109.62
2019-03-13T23:48:00.674Z,96122.66
2019-03-13T23:50:32.621Z,96126.71
2019-03-13T23:53:04.408Z,96127.19
2019-03-13T23:55:36.254Z,96134.64
2019-03-13T23:58:11.261Z,96130.78
